createdAt,value
2018-05-21T00:02:34.858Z,75.98
2018-05-21T00:07:28.152Z,75.70
2018-05-21T00:12:21.460Z,76.15
2018-05-21T00:17:14.752Z,76.72
2018-05-21T00:22:08.806Z,75.82
2018-05-21T00:27:02.868Z,75.69
2018-05-21T00:31:56.164Z,76.13
2018-05-21T00:36:49.458Z,76.19
2018-05-21T00:41:42.744Z,77.28
2018-05-21T00:46:36.051Z,76.99
2018-05-21T00:51:30.109Z,77.03
2018-05-21T00:56:23.422Z,76.85
2018-05-21T01:01:16.703Z,77.11
2018-05-21T01:06:10.790Z,77.17
2018-05-21T01:11:04.131Z,76.87
2018-05-21T01:15:57.429Z,75.95
2018-05-21T01:20:50.729Z,76.11
2018-05-21T01:25:44.791Z,75.98
2018-05-21T01:30:38.084Z,76.46
2018-05-21T01:35:31.445Z,75.95
2018-05-21T01:40:24.776Z,75.50
2018-05-21T01:45:18.098Z,76.71
2018-05-21T01:50:11.456Z,77.12
2018-05-21T01:55:05.547Z,76.45
2018-05-21T01:59:58.873Z,77.15
2018-05-21T02:04:52.155Z,76.52
2018-05-21T02:09:46.226Z,77.71
2018-05-21T02:14:39.522Z,77.67
2018-05-21T02:19:33.827Z,77.12
2018-05-21T02:24:27.127Z,76.76
2018-05-21T02:29:20.421Z,77.24
2018-05-21T02:34:13.724Z,77.23
2018-05-21T02:39:07.035Z,76.82
2018-05-21T02:44:01.099Z,77.38
2018-05-21T02:48:54.415Z,77.57
2018-05-21T02:53:48.479Z,77.23
2018-05-21T02:58:41.774Z,77.35
2018-05-21T03:03:35.081Z,77.79
2018-05-21T03:08:28.389Z,76.36
2018-05-21T03:13:21.684Z,77.20
2018-05-21T03:18:14.967Z,77.63
2018-05-21T03:23:08.282Z,77.91
2018-05-21T03:28:01.596Z,77.43
2018-05-21T03:32:54.901Z,78.02
2018-05-21T03:37:48.202Z,78.04
2018-05-21T03:42:42.264Z,77.69
2018-05-21T03:47:35.568Z,77.55
2018-05-21T03:52:29.642Z,76.89
2018-05-21T03:57:22.957Z,77.64
2018-05-21T04:02:33.806Z,77.00
2018-05-21T04:07:27.087Z,76.75
2018-05-21T04:12:20.387Z,76.66
2018-05-21T04:17:14.456Z,76.69
2018-05-21T04:22:07.761Z,76.17
2018-05-21T04:27:01.815Z,75.98
2018-05-21T04:31:55.141Z,75.66
2018-05-21T04:36:48.439Z,75.52
2018-05-21T04:41:42.591Z,73.96
2018-05-21T04:46:36.752Z,73.10
2018-05-21T04:51:30.088Z,71.04
2018-05-21T04:56:23.387Z,69.82
2018-05-21T05:01:16.689Z,68.87
2018-05-21T05:06:10.499Z,68.07
2018-05-21T05:11:03.802Z,67.93
2018-05-21T05:15:57.111Z,67.72
2018-05-21T05:20:50.408Z,67.61
2018-05-21T05:25:43.715Z,68.06
2018-05-21T05:30:37.022Z,67.80
2018-05-21T05:35:30.329Z,68.70
2018-05-21T05:40:23.630Z,70.09
2018-05-21T05:45:16.936Z,69.54
2018-05-21T05:50:10.247Z,69.85
2018-05-21T05:55:03.548Z,70.96
2018-05-21T05:59:56.844Z,71.45
2018-05-21T06:04:50.159Z,71.81
2018-05-21T06:09:43.445Z,71.56
2018-05-21T06:14:36.735Z,72.27
2018-05-21T06:19:30.055Z,72.58
2018-05-21T06:24:23.363Z,71.43
2018-05-21T06:29:16.683Z,72.85
2018-05-21T06:34:10.123Z,70.47
2018-05-21T06:39:04.062Z,70.13
2018-05-21T06:43:57.381Z,69.10
2018-05-21T06:48:51.439Z,69.01
2018-05-21T06:53:44.742Z,65.14
2018-05-21T06:58:38.818Z,66.20
2018-05-21T07:03:32.123Z,65.94
2018-05-21T07:08:25.441Z,64.29
2018-05-21T07:13:18.739Z,62.73
2018-05-21T07:18:12.112Z,60.83
2018-05-21T07:23:06.125Z,59.34
2018-05-21T07:27:59.421Z,56.74
2018-05-21T07:32:53.515Z,57.72
2018-05-21T07:37:47.600Z,58.40
2018-05-21T07:42:41.678Z,58.46
2018-05-21T07:47:34.995Z,58.16
2018-05-21T07:52:28.458Z,57.86
2018-05-21T07:57:21.799Z,57.36
2018-05-21T08:02:15.098Z,57.72
2018-05-21T08:07:08.563Z,58.20
2018-05-21T08:12:01.880Z,56.98
2018-05-21T08:16:55.968Z,55.32
2018-05-21T08:21:50.084Z,56.04
2018-05-21T08:26:43.427Z,56.35
2018-05-21T08:31:36.760Z,52.33
2018-05-21T08:36:30.863Z,54.99
2018-05-21T08:41:24.190Z,52.94
2018-05-21T08:46:22.297Z,55.43
2018-05-21T08:51:15.615Z,54.17
2018-05-21T08:56:08.915Z,53.14
2018-05-21T09:01:02.223Z,51.74
2018-05-21T09:05:56.279Z,52.08
2018-05-21T09:10:49.585Z,53.79
2018-05-21T09:15:42.884Z,52.78
2018-05-21T09:20:36.183Z,53.27
2018-05-21T09:25:29.480Z,51.94
2018-05-21T09:30:22.789Z,51.98
2018-05-21T09:35:16.875Z,51.13
2018-05-21T09:40:10.942Z,50.36
2018-05-21T09:45:04.246Z,53.00
2018-05-21T09:49:57.556Z,51.54
2018-05-21T09:54:50.879Z,50.71
2018-05-21T09:59:44.191Z,50.54
2018-05-21T10:04:38.281Z,51.02
2018-05-21T10:09:32.340Z,51.47
2018-05-21T10:14:25.677Z,50.43
2018-05-21T10:19:21.630Z,50.78
2018-05-21T10:24:14.943Z,50.01
2018-05-21T10:29:08.267Z,48.83
2018-05-21T10:34:02.426Z,49.89
2018-05-21T10:38:55.731Z,49.44
2018-05-21T10:43:50.147Z,51.20
2018-05-21T10:48:43.556Z,51.88
2018-05-21T10:53:36.859Z,48.63
2018-05-21T10:58:30.171Z,48.39
2018-05-21T11:03:23.477Z,47.49
2018-05-21T11:08:16.779Z,46.96
2018-05-21T11:13:10.068Z,46.88
2018-05-21T11:18:03.396Z,46.71
2018-05-21T11:22:56.739Z,43.53
2018-05-21T11:27:50.856Z,46.08
2018-05-21T11:32:45.771Z,44.92
2018-05-21T11:37:39.087Z,44.68
2018-05-21T11:42:32.429Z,40.62
2018-05-21T11:47:32.110Z,39.13
2018-05-21T11:52:25.424Z,42.12
2018-05-21T11:57:18.741Z,41.94
2018-05-21T12:02:12.053Z,39.48
2018-05-21T12:07:05.354Z,41.70
2018-05-21T12:11:59.510Z,38.48
2018-05-21T12:16:52.820Z,38.08
2018-05-21T12:21:47.157Z,38.13
2018-05-21T12:26:40.487Z,43.03
2018-05-21T12:31:33.792Z,39.01
2018-05-21T12:36:27.092Z,41.24
2018-05-21T12:41:20.406Z,39.41
2018-05-21T12:46:13.716Z,37.54
2018-05-21T12:51:07.954Z,42.35
2018-05-21T12:56:01.280Z,39.48
2018-05-21T13:00:55.332Z,38.49
2018-05-21T13:05:48.647Z,41.94
2018-05-21T13:10:42.711Z,43.86
2018-05-21T13:15:36.017Z,42.73
2018-05-21T13:20:30.118Z,42.68
2018-05-21T13:25:24.188Z,40.60
2018-05-21T13:30:17.534Z,39.28
2018-05-21T13:35:10.841Z,38.92
2018-05-21T13:40:04.171Z,39.79
2018-05-21T13:44:58.250Z,38.97
2018-05-21T13:49:52.367Z,35.60
2018-05-21T13:54:45.668Z,39.02
2018-05-21T13:59:38.987Z,36.76
2018-05-21T14:04:33.084Z,38.75
2018-05-21T14:09:27.187Z,38.53
2018-05-21T14:14:21.285Z,33.96
2018-05-21T14:19:15.382Z,32.84
2018-05-21T14:24:09.461Z,36.34
2018-05-21T14:29:02.797Z,31.42
2018-05-21T14:33:56.083Z,33.59
2018-05-21T14:38:49.385Z,33.80
2018-05-21T14:43:42.725Z,32.92
2018-05-21T14:48:36.014Z,26.62
2018-05-21T14:53:29.304Z,32.20
2018-05-21T14:58:22.628Z,28.52
2018-05-21T15:03:15.963Z,31.50
2018-05-21T15:08:09.277Z,31.76
2018-05-21T15:13:03.335Z,31.61
2018-05-21T15:17:56.647Z,30.17
2018-05-21T15:22:50.724Z,30.46
2018-05-21T15:27:44.018Z,30.33
2018-05-21T15:32:37.311Z,32.52
2018-05-21T15:37:30.632Z,29.33
2018-05-21T15:42:23.924Z,28.47
2018-05-21T15:47:17.305Z,32.04
2018-05-21T15:52:10.593Z,35.37
2018-05-21T15:57:04.702Z,33.02
2018-05-21T16:01:58.027Z,36.70
2018-05-21T16:06:51.311Z,34.66
2018-05-21T16:11:44.619Z,37.85
2018-05-21T16:16:38.700Z,40.48
2018-05-21T16:21:31.996Z,43.82
2018-05-21T16:26:25.316Z,41.98
2018-05-21T16:31:18.655Z,41.74
2018-05-21T16:36:11.979Z,41.99
2018-05-21T16:41:05.319Z,44.00
2018-05-21T16:45:58.639Z,47.64
2018-05-21T16:50:52.033Z,46.17
2018-05-21T16:55:45.416Z,47.20
2018-05-21T17:00:38.726Z,46.28
2018-05-21T17:05:32.039Z,46.72
2018-05-21T17:10:25.340Z,47.24
2018-05-21T17:15:19.639Z,46.72
2018-05-21T17:20:12.956Z,44.29
2018-05-21T17:25:07.015Z,45.58
2018-05-21T17:30:00.330Z,44.30
2018-05-21T17:34:59.599Z,45.69
2018-05-21T17:39:52.920Z,44.71
2018-05-21T17:44:47.151Z,46.25
2018-05-21T17:49:40.444Z,46.76
2018-05-21T17:54:33.750Z,45.99
2018-05-21T17:59:27.839Z,47.34
2018-05-21T18:04:21.148Z,46.58
2018-05-21T18:09:14.492Z,48.99
2018-05-21T18:14:07.844Z,49.22
2018-05-21T18:19:01.162Z,47.92
2018-05-21T18:23:54.468Z,46.73
2018-05-21T18:28:47.780Z,48.04
2018-05-21T18:33:42.067Z,48.11
2018-05-21T18:38:36.140Z,48.29
2018-05-21T18:43:29.442Z,48.27
2018-05-21T18:48:22.750Z,48.72
2018-05-21T18:53:18.588Z,49.29
2018-05-21T18:58:12.031Z,49.45
2018-05-21T19:03:06.212Z,50.01
2018-05-21T19:07:59.519Z,51.12
2018-05-21T19:12:52.844Z,49.83
2018-05-21T19:17:46.908Z,52.01
2018-05-21T19:22:40.203Z,53.18
2018-05-21T19:27:33.496Z,52.24
2018-05-21T19:32:27.561Z,52.89
2018-05-21T19:37:20.854Z,55.03
2018-05-21T19:42:14.195Z,54.98
2018-05-21T19:47:07.564Z,56.42
2018-05-21T19:52:00.959Z,53.44
2018-05-21T19:56:54.259Z,53.69
2018-05-21T20:01:47.660Z,53.63
2018-05-21T20:06:41.765Z,52.08
2018-05-21T20:11:35.852Z,53.75
2018-05-21T20:16:29.912Z,54.02
2018-05-21T20:21:23.227Z,55.27
2018-05-21T20:26:17.305Z,56.25
2018-05-21T20:31:11.394Z,56.64
2018-05-21T20:36:04.700Z,56.41
2018-05-21T20:40:58.771Z,58.21
2018-05-21T20:45:52.094Z,57.59
2018-05-21T20:50:45.384Z,58.88
2018-05-21T20:55:39.472Z,58.79
2018-05-21T21:00:33.682Z,58.39
2018-05-21T21:05:26.994Z,58.33
2018-05-21T21:10:21.077Z,59.86
2018-05-21T21:15:14.390Z,60.95
2018-05-21T21:20:08.444Z,62.33
2018-05-21T21:25:01.756Z,64.01
2018-05-21T21:29:55.828Z,62.20
2018-05-21T21:34:49.132Z,62.83
2018-05-21T21:39:42.448Z,63.24
2018-05-21T21:44:35.788Z,62.78
2018-05-21T21:49:29.126Z,64.41
2018-05-21T21:54:22.403Z,64.70
2018-05-21T21:59:15.723Z,66.47
2018-05-21T22:04:09.023Z,66.22
2018-05-21T22:09:02.327Z,66.83
2018-05-21T22:13:55.623Z,66.25
2018-05-21T22:18:48.927Z,66.82
2018-05-21T22:23:42.988Z,66.80
2018-05-21T22:28:36.278Z,66.83
2018-05-21T22:33:30.363Z,67.51
2018-05-21T22:38:23.658Z,68.04
2018-05-21T22:43:17.749Z,67.65
2018-05-21T22:48:11.810Z,67.73
2018-05-21T22:53:05.132Z,68.41
2018-05-21T22:57:58.399Z,68.06
2018-05-21T23:02:52.408Z,69.44
2018-05-21T23:07:46.483Z,70.29
2018-05-21T23:12:40.540Z,69.99
2018-05-21T23:17:34.023Z,69.58
2018-05-21T23:22:44.755Z,69.17
2018-05-21T23:27:38.864Z,70.03
2018-05-21T23:32:32.149Z,70.60
2018-05-21T23:37:25.446Z,69.78
2018-05-21T23:42:18.744Z,70.47
2018-05-21T23:47:12.034Z,70.73
2018-05-21T23:52:05.344Z,70.65
2018-05-21T23:56:58.690Z,70.62
